sensor_id;sensor_type;location;lat;lon;timestamp;temperature;humidity
1181;DHT22;579;52.046;8.532;2022-08-19T00:01:06;22.50;1.00
1181;DHT22;579;52.046;8.532;2022-08-19T00:03:33;22.50;1.00
1181;DHT22;579;52.046;8.532;2022-08-19T00:05:59;22.60;1.00
1181;DHT22;579;52.046;8.532;2022-08-19T00:08:25;22.60;1.00
1181;DHT22;579;52.046;8.532;2022-08-19T00:10:51;22.40;1.00
1181;DHT22;579;52.046;8.532;2022-08-19T00:18:21;22.20;1.00
1181;DHT22;579;52.046;8.532;2022-08-19T00:20:48;22.20;1.00
1181;DHT22;579;52.046;8.532;2022-08-19T00:23:14;22.10;1.00
1181;DHT22;579;52.046;8.532;2022-08-19T00:25:41;22.20;1.00
1181;DHT22;579;52.046;8.532;2022-08-19T00:28:07;21.90;1.00
1181;DHT22;579;52.046;8.532;2022-08-19T00:30:33;21.80;1.00
1181;DHT22;579;52.046;8.532;2022-08-19T00:32:59;21.90;1.00
1181;DHT22;579;52.046;8.532;2022-08-19T00:38:29;21.90;1.00
1181;DHT22;579;52.046;8.532;2022-08-19T00:40:55;21.80;1.00
1181;DHT22;579;52.046;8.532;2022-08-19T00:43:23;21.90;1.00
1181;DHT22;579;52.046;8.532;2022-08-19T00:45:50;21.90;1.00
1181;DHT22;579;52.046;8.532;2022-08-19T00:48:17;21.90;1.00
1181;DHT22;579;52.046;8.532;2022-08-19T00:50:44;21.90;1.00
1181;DHT22;579;52.046;8.532;2022-08-19T00:53:13;21.80;1.00
1181;DHT22;579;52.046;8.532;2022-08-19T00:58:29;21.70;1.00
1181;DHT22;579;52.046;8.532;2022-08-19T01:00:56;21.80;1.00
1181;DHT22;579;52.046;8.532;2022-08-19T01:03:22;21.70;1.00
1181;DHT22;579;52.046;8.532;2022-08-19T01:05:50;21.50;1.00
1181;DHT22;579;52.046;8.532;2022-08-19T01:08:18;21.50;1.00
1181;DHT22;579;52.046;8.532;2022-08-19T01:10:48;21.60;1.00
1181;DHT22;579;52.046;8.532;2022-08-19T01:13:19;21.60;1.00
1181;DHT22;579;52.046;8.532;2022-08-19T01:18:31;21.80;1.00
1181;DHT22;579;52.046;8.532;2022-08-19T01:21:02;21.60;1.00
1181;DHT22;579;52.046;8.532;2022-08-19T01:23:32;21.50;1.00
1181;DHT22;579;52.046;8.532;2022-08-19T01:26:10;21.50;1.00
1181;DHT22;579;52.046;8.532;2022-08-19T01:28:39;21.60;1.00
1181;DHT22;579;52.046;8.532;2022-08-19T01:31:06;21.60;1.00
1181;DHT22;579;52.046;8.532;2022-08-19T01:33:37;21.80;1.00
1181;DHT22;579;52.046;8.532;2022-08-19T01:39:01;21.60;1.00
1181;DHT22;579;52.046;8.532;2022-08-19T01:41:29;21.70;1.00
1181;DHT22;579;52.046;8.532;2022-08-19T01:43:56;21.30;1.00
1181;DHT22;579;52.046;8.532;2022-08-19T01:46:22;21.10;1.00
1181;DHT22;579;52.046;8.532;2022-08-19T01:48:48;21.10;1.00
1181;DHT22;579;52.046;8.532;2022-08-19T01:51:15;21.30;1.00
1181;DHT22;579;52.046;8.532;2022-08-19T01:53:41;21.50;1.00
1181;DHT22;579;52.046;8.532;2022-08-19T01:56:09;21.40;1.00
1181;DHT22;579;52.046;8.532;2022-08-19T02:03:28;21.40;1.00
1181;DHT22;579;52.046;8.532;2022-08-19T02:05:56;21.20;1.00
1181;DHT22;579;52.046;8.532;2022-08-19T02:08:25;21.40;1.00
1181;DHT22;579;52.046;8.532;2022-08-19T02:10:51;21.40;1.00
1181;DHT22;579;52.046;8.532;2022-08-19T02:13:17;21.20;1.00
1181;DHT22;579;52.046;8.532;2022-08-19T02:15:44;21.40;1.00
1181;DHT22;579;52.046;8.532;2022-08-19T02:18:11;21.30;1.00
1181;DHT22;579;52.046;8.532;2022-08-19T02:20:39;21.30;1.00
1181;DHT22;579;52.046;8.532;2022-08-19T02:28:09;21.00;1.00
1181;DHT22;579;52.046;8.532;2022-08-19T02:30:37;21.00;1.00
1181;DHT22;579;52.046;8.532;2022-08-19T02:33:04;20.90;1.00
1181;DHT22;579;52.046;8.532;2022-08-19T02:35:30;21.10;1.00
1181;DHT22;579;52.046;8.532;2022-08-19T02:37:57;21.00;1.00
1181;DHT22;579;52.046;8.532;2022-08-19T02:40:48;21.00;1.00
1181;DHT22;579;52.046;8.532;2022-08-19T02:43:18;20.90;1.00
1181;DHT22;579;52.046;8.532;2022-08-19T02:45:46;21.10;1.00
1181;DHT22;579;52.046;8.532;2022-08-19T02:53:19;21.30;1.00
1181;DHT22;579;52.046;8.532;2022-08-19T02:55:47;20.90;1.00
1181;DHT22;579;52.046;8.532;2022-08-19T02:58:15;21.00;1.00
1181;DHT22;579;52.046;8.532;2022-08-19T03:00:42;20.80;1.00
1181;DHT22;579;52.046;8.532;2022-08-19T03:03:09;20.90;1.00
1181;DHT22;579;52.046;8.532;2022-08-19T03:05:36;20.80;1.00
1181;DHT22;579;52.046;8.532;2022-08-19T03:08:02;20.90;1.00
1181;DHT22;579;52.046;8.532;2022-08-19T03:13:12;21.20;1.00
1181;DHT22;579;52.046;8.532;2022-08-19T03:15:41;21.10;1.00
1181;DHT22;579;52.046;8.532;2022-08-19T03:18:08;20.80;1.00
1181;DHT22;579;52.046;8.532;2022-08-19T03:20:41;20.70;1.00
1181;DHT22;579;52.046;8.532;2022-08-19T03:23:08;20.80;1.00
1181;DHT22;579;52.046;8.532;2022-08-19T03:25:37;20.60;1.00
1181;DHT22;579;52.046;8.532;2022-08-19T03:28:04;20.60;1.00
1181;DHT22;579;52.046;8.532;2022-08-19T03:35:31;20.40;1.00
1181;DHT22;579;52.046;8.532;2022-08-19T03:37:58;20.40;1.00
1181;DHT22;579;52.046;8.532;2022-08-19T03:40:24;20.50;1.00
1181;DHT22;579;52.046;8.532;2022-08-19T03:42:50;20.40;1.00
1181;DHT22;579;52.046;8.532;2022-08-19T03:45:17;20.40;1.00
1181;DHT22;579;52.046;8.532;2022-08-19T03:47:43;20.50;1.00
1181;DHT22;579;52.046;8.532;2022-08-19T03:50:10;20.50;1.00
1181;DHT22;579;52.046;8.532;2022-08-19T03:52:37;20.40;1.00
1181;DHT22;579;52.046;8.532;2022-08-19T04:00:12;20.20;1.00
1181;DHT22;579;52.046;8.532;2022-08-19T04:02:39;20.30;1.00
1181;DHT22;579;52.046;8.532;2022-08-19T04:05:06;20.40;1.00
1181;DHT22;579;52.046;8.532;2022-08-19T04:07:33;20.50;1.00
1181;DHT22;579;52.046;8.532;2022-08-19T04:09:59;20.50;1.00
1181;DHT22;579;52.046;8.532;2022-08-19T04:12:26;20.30;1.00
1181;DHT22;579;52.046;8.532;2022-08-19T04:14:52;20.40;1.00
1181;DHT22;579;52.046;8.532;2022-08-19T04:17:19;20.30;1.00
1181;DHT22;579;52.046;8.532;2022-08-19T04:24:46;20.30;1.00
1181;DHT22;579;52.046;8.532;2022-08-19T04:27:12;20.30;1.00
1181;DHT22;579;52.046;8.532;2022-08-19T04:29:38;20.40;1.00
1181;DHT22;579;52.046;8.532;2022-08-19T04:32:06;20.60;1.00
1181;DHT22;579;52.046;8.532;2022-08-19T04:34:32;20.30;1.00
1181;DHT22;579;52.046;8.532;2022-08-19T04:36:58;20.20;1.00
1181;DHT22;579;52.046;8.532;2022-08-19T04:39:26;20.20;1.00
1181;DHT22;579;52.046;8.532;2022-08-19T04:47:38;20.40;1.00
1181;DHT22;579;52.046;8.532;2022-08-19T04:50:06;19.80;1.00
1181;DHT22;579;52.046;8.532;2022-08-19T04:52:33;20.10;1.00
1181;DHT22;579;52.046;8.532;2022-08-19T04:54:59;20.10;1.00
1181;DHT22;579;52.046;8.532;2022-08-19T04:57:28;20.00;1.00
1181;DHT22;579;52.046;8.532;2022-08-19T04:59:55;20.00;1.00
1181;DHT22;579;52.046;8.532;2022-08-19T05:02:22;20.10;1.00
1181;DHT22;579;52.046;8.532;2022-08-19T05:04:51;20.10;1.00
1181;DHT22;579;52.046;8.532;2022-08-19T05:12:28;20.40;1.00
1181;DHT22;579;52.046;8.532;2022-08-19T05:14:54;20.30;1.00
1181;DHT22;579;52.046;8.532;2022-08-19T05:17:22;20.50;1.00
1181;DHT22;579;52.046;8.532;2022-08-19T05:19:48;20.40;1.00
1181;DHT22;579;52.046;8.532;2022-08-19T05:22:32;20.50;1.00
1181;DHT22;579;52.046;8.532;2022-08-19T05:25:01;20.50;1.00
1181;DHT22;579;52.046;8.532;2022-08-19T05:27:29;20.50;1.00
1181;DHT22;579;52.046;8.532;2022-08-19T05:35:00;20.20;1.00
1181;DHT22;579;52.046;8.532;2022-08-19T05:37:27;20.30;1.00
1181;DHT22;579;52.046;8.532;2022-08-19T05:39:53;20.30;1.00
1181;DHT22;579;52.046;8.532;2022-08-19T05:42:20;20.40;1.00
1181;DHT22;579;52.046;8.532;2022-08-19T05:44:48;20.50;1.00
1181;DHT22;579;52.046;8.532;2022-08-19T05:47:15;20.70;1.00
1181;DHT22;579;52.046;8.532;2022-08-19T05:49:44;20.70;1.00
1181;DHT22;579;52.046;8.532;2022-08-19T05:56:29;20.70;1.00
1181;DHT22;579;52.046;8.532;2022-08-19T05:58:56;20.60;1.00
1181;DHT22;579;52.046;8.532;2022-08-19T06:01:25;20.70;1.00
1181;DHT22;579;52.046;8.532;2022-08-19T06:03:52;20.80;1.00
1181;DHT22;579;52.046;8.532;2022-08-19T06:06:19;20.80;1.00
1181;DHT22;579;52.046;8.532;2022-08-19T06:08:46;20.80;1.00
1181;DHT22;579;52.046;8.532;2022-08-19T06:11:18;20.70;1.00
1181;DHT22;579;52.046;8.532;2022-08-19T06:18:53;20.60;1.00
1181;DHT22;579;52.046;8.532;2022-08-19T06:21:21;21.00;1.00
1181;DHT22;579;52.046;8.532;2022-08-19T06:23:49;21.10;1.00
1181;DHT22;579;52.046;8.532;2022-08-19T06:26:18;21.10;1.00
1181;DHT22;579;52.046;8.532;2022-08-19T06:28:45;21.20;1.00
1181;DHT22;579;52.046;8.532;2022-08-19T06:31:13;21.30;1.00
1181;DHT22;579;52.046;8.532;2022-08-19T06:33:40;21.60;1.00
1181;DHT22;579;52.046;8.532;2022-08-19T06:41:12;21.70;1.00
1181;DHT22;579;52.046;8.532;2022-08-19T06:43:38;21.90;1.00
1181;DHT22;579;52.046;8.532;2022-08-19T06:46:10;22.10;1.00
1181;DHT22;579;52.046;8.532;2022-08-19T06:48:38;21.90;1.00
1181;DHT22;579;52.046;8.532;2022-08-19T06:51:05;22.30;1.00
1181;DHT22;579;52.046;8.532;2022-08-19T06:53:31;22.50;1.00
1181;DHT22;579;52.046;8.532;2022-08-19T06:55:58;22.60;1.00
1181;DHT22;579;52.046;8.532;2022-08-19T07:03:31;22.50;1.00
1181;DHT22;579;52.046;8.532;2022-08-19T07:06:02;22.10;1.00
1181;DHT22;579;52.046;8.532;2022-08-19T07:08:30;22.50;1.00
1181;DHT22;579;52.046;8.532;2022-08-19T07:10:56;22.90;1.00
1181;DHT22;579;52.046;8.532;2022-08-19T07:13:22;22.80;1.00
1181;DHT22;579;52.046;8.532;2022-08-19T07:15:49;22.80;1.00
1181;DHT22;579;52.046;8.532;2022-08-19T07:18:17;22.90;1.00
1181;DHT22;579;52.046;8.532;2022-08-19T07:23:22;23.30;1.00
1181;DHT22;579;52.046;8.532;2022-08-19T07:25:48;23.00;1.00
1181;DHT22;579;52.046;8.532;2022-08-19T07:28:14;22.80;1.00
1181;DHT22;579;52.046;8.532;2022-08-19T07:30:40;22.80;1.00
1181;DHT22;579;52.046;8.532;2022-08-19T07:33:07;22.90;1.00
1181;DHT22;579;52.046;8.532;2022-08-19T07:35:33;23.40;1.00
1181;DHT22;579;52.046;8.532;2022-08-19T07:38:00;23.30;1.00
1181;DHT22;579;52.046;8.532;2022-08-19T07:43:31;23.70;1.00
1181;DHT22;579;52.046;8.532;2022-08-19T07:45:58;24.30;1.00
1181;DHT22;579;52.046;8.532;2022-08-19T07:48:25;23.90;1.00
1181;DHT22;579;52.046;8.532;2022-08-19T07:50:53;23.80;1.00
1181;DHT22;579;52.046;8.532;2022-08-19T07:53:20;23.90;1.00
1181;DHT22;579;52.046;8.532;2022-08-19T07:55:47;24.00;1.00
1181;DHT22;579;52.046;8.532;2022-08-19T07:58:16;24.60;1.00
1181;DHT22;579;52.046;8.532;2022-08-19T08:05:30;24.40;1.00
1181;DHT22;579;52.046;8.532;2022-08-19T08:08:15;25.10;1.00
1181;DHT22;579;52.046;8.532;2022-08-19T08:11:00;25.20;1.00
1181;DHT22;579;52.046;8.532;2022-08-19T08:13:27;25.30;1.00
1181;DHT22;579;52.046;8.532;2022-08-19T08:15:53;25.50;1.00
1181;DHT22;579;52.046;8.532;2022-08-19T08:18:20;25.10;1.00
1181;DHT22;579;52.046;8.532;2022-08-19T08:20:47;25.20;1.00
1181;DHT22;579;52.046;8.532;2022-08-19T08:26:00;25.70;1.00
1181;DHT22;579;52.046;8.532;2022-08-19T08:28:28;26.20;1.00
1181;DHT22;579;52.046;8.532;2022-08-19T08:30:55;26.70;1.00
1181;DHT22;579;52.046;8.532;2022-08-19T08:33:25;26.80;1.00
1181;DHT22;579;52.046;8.532;2022-08-19T08:35:53;26.90;1.00
1181;DHT22;579;52.046;8.532;2022-08-19T08:38:19;27.00;1.00
1181;DHT22;579;52.046;8.532;2022-08-19T08:40:47;27.10;1.00
1181;DHT22;579;52.046;8.532;2022-08-19T08:46:00;27.10;1.00
1181;DHT22;579;52.046;8.532;2022-08-19T08:48:35;27.60;1.00
1181;DHT22;579;52.046;8.532;2022-08-19T08:51:07;27.70;1.00
1181;DHT22;579;52.046;8.532;2022-08-19T08:53:40;27.90;1.00
1181;DHT22;579;52.046;8.532;2022-08-19T08:56:08;27.80;1.00
1181;DHT22;579;52.046;8.532;2022-08-19T08:58:49;27.70;1.00
1181;DHT22;579;52.046;8.532;2022-08-19T09:03:57;27.90;1.00
1181;DHT22;579;52.046;8.532;2022-08-19T09:06:31;27.90;1.00
1181;DHT22;579;52.046;8.532;2022-08-19T09:09:04;28.10;1.00
1181;DHT22;579;52.046;8.532;2022-08-19T09:11:47;28.30;1.00
1181;DHT22;579;52.046;8.532;2022-08-19T09:14:34;27.90;1.00
1181;DHT22;579;52.046;8.532;2022-08-19T09:17:03;27.80;1.00
1181;DHT22;579;52.046;8.532;2022-08-19T09:22:25;28.20;1.00
1181;DHT22;579;52.046;8.532;2022-08-19T09:24:53;28.70;1.00
1181;DHT22;579;52.046;8.532;2022-08-19T09:27:20;28.90;1.00
1181;DHT22;579;52.046;8.532;2022-08-19T09:29:46;28.90;1.00
1181;DHT22;579;52.046;8.532;2022-08-19T09:32:14;28.90;1.00
1181;DHT22;579;52.046;8.532;2022-08-19T09:34:40;29.00;1.00
1181;DHT22;579;52.046;8.532;2022-08-19T09:37:07;29.10;1.00
1181;DHT22;579;52.046;8.532;2022-08-19T09:44:39;29.60;1.00
1181;DHT22;579;52.046;8.532;2022-08-19T09:47:05;29.50;1.00
1181;DHT22;579;52.046;8.532;2022-08-19T09:49:32;29.60;1.00
1181;DHT22;579;52.046;8.532;2022-08-19T09:51:59;29.80;1.00
1181;DHT22;579;52.046;8.532;2022-08-19T09:54:26;29.50;1.00
1181;DHT22;579;52.046;8.532;2022-08-19T09:56:54;29.40;1.00
1181;DHT22;579;52.046;8.532;2022-08-19T09:59:20;29.40;1.00
1181;DHT22;579;52.046;8.532;2022-08-19T10:06:31;30.40;1.00
1181;DHT22;579;52.046;8.532;2022-08-19T10:08:59;30.90;1.00
1181;DHT22;579;52.046;8.532;2022-08-19T10:11:25;30.90;1.00
1181;DHT22;579;52.046;8.532;2022-08-19T10:13:53;30.40;1.00
1181;DHT22;579;52.046;8.532;2022-08-19T10:16:22;30.40;1.00
1181;DHT22;579;52.046;8.532;2022-08-19T10:18:49;30.70;1.00
1181;DHT22;579;52.046;8.532;2022-08-19T10:21:18;30.90;1.00
1181;DHT22;579;52.046;8.532;2022-08-19T10:26:22;30.40;1.00
1181;DHT22;579;52.046;8.532;2022-08-19T10:28:50;30.00;1.00
1181;DHT22;579;52.046;8.532;2022-08-19T10:31:18;30.00;1.00
1181;DHT22;579;52.046;8.532;2022-08-19T10:33:45;29.70;1.00
1181;DHT22;579;52.046;8.532;2022-08-19T10:36:15;29.60;1.00
1181;DHT22;579;52.046;8.532;2022-08-19T10:38:43;29.70;1.00
1181;DHT22;579;52.046;8.532;2022-08-19T10:41:12;29.40;1.00
1181;DHT22;579;52.046;8.532;2022-08-19T10:46:23;29.40;1.00
1181;DHT22;579;52.046;8.532;2022-08-19T10:48:51;29.30;1.00
1181;DHT22;579;52.046;8.532;2022-08-19T10:51:19;29.40;1.00
1181;DHT22;579;52.046;8.532;2022-08-19T10:54:04;29.40;1.00
1181;DHT22;579;52.046;8.532;2022-08-19T10:56:32;29.20;1.00
1181;DHT22;579;52.046;8.532;2022-08-19T10:59:18;29.00;1.00
1181;DHT22;579;52.046;8.532;2022-08-19T11:01:47;29.10;1.00
1181;DHT22;579;52.046;8.532;2022-08-19T11:06:55;28.70;1.00
1181;DHT22;579;52.046;8.532;2022-08-19T11:09:24;28.40;1.00
1181;DHT22;579;52.046;8.532;2022-08-19T11:11:52;28.70;1.00
1181;DHT22;579;52.046;8.532;2022-08-19T11:14:20;28.70;1.00
1181;DHT22;579;52.046;8.532;2022-08-19T11:16:46;28.70;1.00
1181;DHT22;579;52.046;8.532;2022-08-19T11:19:14;28.60;1.00
1181;DHT22;579;52.046;8.532;2022-08-19T11:21:45;28.50;1.00
1181;DHT22;579;52.046;8.532;2022-08-19T11:28:31;28.70;1.00
1181;DHT22;579;52.046;8.532;2022-08-19T11:30:58;30.00;1.00
1181;DHT22;579;52.046;8.532;2022-08-19T11:33:24;30.30;1.00
1181;DHT22;579;52.046;8.532;2022-08-19T11:35:51;30.60;1.00
1181;DHT22;579;52.046;8.532;2022-08-19T11:38:18;30.80;1.00
1181;DHT22;579;52.046;8.532;2022-08-19T11:40:45;31.00;1.00
1181;DHT22;579;52.046;8.532;2022-08-19T11:43:11;31.20;1.00
1181;DHT22;579;52.046;8.532;2022-08-19T11:50:30;31.40;1.00
1181;DHT22;579;52.046;8.532;2022-08-19T11:52:57;30.90;1.00
1181;DHT22;579;52.046;8.532;2022-08-19T11:55:23;30.80;1.00
1181;DHT22;579;52.046;8.532;2022-08-19T11:57:49;30.40;1.00
1181;DHT22;579;52.046;8.532;2022-08-19T12:00:18;30.00;1.00
1181;DHT22;579;52.046;8.532;2022-08-19T12:02:44;29.70;1.00
1181;DHT22;579;52.046;8.532;2022-08-19T12:05:10;29.60;1.00
1181;DHT22;579;52.046;8.532;2022-08-19T12:10:28;29.40;1.00
1181;DHT22;579;52.046;8.532;2022-08-19T12:12:54;29.20;1.00
1181;DHT22;579;52.046;8.532;2022-08-19T12:15:20;29.70;1.00
1181;DHT22;579;52.046;8.532;2022-08-19T12:17:47;29.90;1.00
1181;DHT22;579;52.046;8.532;2022-08-19T12:20:13;30.20;1.00
1181;DHT22;579;52.046;8.532;2022-08-19T12:22:41;30.30;1.00
1181;DHT22;579;52.046;8.532;2022-08-19T12:25:08;30.60;1.00
1181;DHT22;579;52.046;8.532;2022-08-19T12:32:40;30.80;1.00
1181;DHT22;579;52.046;8.532;2022-08-19T12:35:07;31.10;1.00
1181;DHT22;579;52.046;8.532;2022-08-19T12:37:37;31.70;1.00
1181;DHT22;579;52.046;8.532;2022-08-19T12:40:04;31.80;1.00
1181;DHT22;579;52.046;8.532;2022-08-19T12:42:31;31.50;1.00
1181;DHT22;579;52.046;8.532;2022-08-19T12:44:57;31.50;1.00
1181;DHT22;579;52.046;8.532;2022-08-19T12:47:24;31.60;1.00
1181;DHT22;579;52.046;8.532;2022-08-19T12:52:43;31.10;1.00
1181;DHT22;579;52.046;8.532;2022-08-19T12:55:10;30.40;1.00
1181;DHT22;579;52.046;8.532;2022-08-19T12:57:37;30.30;1.00
1181;DHT22;579;52.046;8.532;2022-08-19T13:00:05;30.20;1.00
1181;DHT22;579;52.046;8.532;2022-08-19T13:02:35;30.10;1.00
1181;DHT22;579;52.046;8.532;2022-08-19T13:05:02;30.40;1.00
1181;DHT22;579;52.046;8.532;2022-08-19T13:07:29;30.20;1.00
1181;DHT22;579;52.046;8.532;2022-08-19T13:14:29;29.80;1.00
1181;DHT22;579;52.046;8.532;2022-08-19T13:16:56;30.30;1.00
1181;DHT22;579;52.046;8.532;2022-08-19T13:19:22;30.80;1.00
1181;DHT22;579;52.046;8.532;2022-08-19T13:21:50;31.00;1.00
1181;DHT22;579;52.046;8.532;2022-08-19T13:24:17;31.10;1.00
1181;DHT22;579;52.046;8.532;2022-08-19T13:26:43;31.20;1.00
1181;DHT22;579;52.046;8.532;2022-08-19T13:29:10;31.00;1.00
1181;DHT22;579;52.046;8.532;2022-08-19T13:34:50;30.50;1.00
1181;DHT22;579;52.046;8.532;2022-08-19T13:37:17;30.60;1.00
1181;DHT22;579;52.046;8.532;2022-08-19T13:40:05;30.50;1.00
1181;DHT22;579;52.046;8.532;2022-08-19T13:42:32;30.80;1.00
1181;DHT22;579;52.046;8.532;2022-08-19T13:44:58;30.70;1.00
1181;DHT22;579;52.046;8.532;2022-08-19T13:47:24;31.10;1.00
1181;DHT22;579;52.046;8.532;2022-08-19T13:52:30;31.60;1.00
1181;DHT22;579;52.046;8.532;2022-08-19T13:54:56;31.70;1.00
1181;DHT22;579;52.046;8.532;2022-08-19T13:57:23;32.10;1.00
1181;DHT22;579;52.046;8.532;2022-08-19T13:59:49;32.30;1.00
1181;DHT22;579;52.046;8.532;2022-08-19T14:02:15;32.00;1.00
1181;DHT22;579;52.046;8.532;2022-08-19T14:04:42;32.10;1.00
1181;DHT22;579;52.046;8.532;2022-08-19T14:07:08;31.90;1.00
1181;DHT22;579;52.046;8.532;2022-08-19T14:14:41;31.80;1.00
1181;DHT22;579;52.046;8.532;2022-08-19T14:17:08;31.60;1.00
1181;DHT22;579;52.046;8.532;2022-08-19T14:19:35;31.60;1.00
1181;DHT22;579;52.046;8.532;2022-08-19T14:22:02;31.70;1.00
1181;DHT22;579;52.046;8.532;2022-08-19T14:24:28;31.60;1.00
1181;DHT22;579;52.046;8.532;2022-08-19T14:26:55;31.60;1.00
1181;DHT22;579;52.046;8.532;2022-08-19T14:29:21;31.80;1.00
1181;DHT22;579;52.046;8.532;2022-08-19T14:36:53;32.30;1.00
1181;DHT22;579;52.046;8.532;2022-08-19T14:39:19;32.60;1.00
1181;DHT22;579;52.046;8.532;2022-08-19T14:41:45;32.80;1.00
1181;DHT22;579;52.046;8.532;2022-08-19T14:44:12;33.50;1.00
1181;DHT22;579;52.046;8.532;2022-08-19T14:46:38;34.20;1.00
1181;DHT22;579;52.046;8.532;2022-08-19T14:49:05;35.40;1.00
1181;DHT22;579;52.046;8.532;2022-08-19T14:51:33;36.80;1.00
1181;DHT22;579;52.046;8.532;2022-08-19T14:58:59;38.10;1.00
1181;DHT22;579;52.046;8.532;2022-08-19T15:01:27;38.80;1.00
1181;DHT22;579;52.046;8.532;2022-08-19T15:03:53;38.30;1.00
1181;DHT22;579;52.046;8.532;2022-08-19T15:06:20;37.10;1.00
1181;DHT22;579;52.046;8.532;2022-08-19T15:08:48;36.20;1.00
1181;DHT22;579;52.046;8.532;2022-08-19T15:11:18;36.80;1.00
1181;DHT22;579;52.046;8.532;2022-08-19T15:13:46;37.80;1.00
1181;DHT22;579;52.046;8.532;2022-08-19T15:21:00;37.90;1.00
1181;DHT22;579;52.046;8.532;2022-08-19T15:23:27;35.30;1.00
1181;DHT22;579;52.046;8.532;2022-08-19T15:25:53;36.10;1.00
1181;DHT22;579;52.046;8.532;2022-08-19T15:28:20;36.80;1.00
1181;DHT22;579;52.046;8.532;2022-08-19T15:30:47;38.30;1.00
1181;DHT22;579;52.046;8.532;2022-08-19T15:33:13;39.30;1.00
1181;DHT22;579;52.046;8.532;2022-08-19T15:35:40;38.20;1.00
1181;DHT22;579;52.046;8.532;2022-08-19T15:42:34;37.40;1.00
1181;DHT22;579;52.046;8.532;2022-08-19T15:45:02;37.40;1.00
1181;DHT22;579;52.046;8.532;2022-08-19T15:47:29;36.40;1.00
1181;DHT22;579;52.046;8.532;2022-08-19T15:49:56;35.40;1.00
1181;DHT22;579;52.046;8.532;2022-08-19T15:52:22;34.20;1.00
1181;DHT22;579;52.046;8.532;2022-08-19T15:54:48;33.40;1.00
1181;DHT22;579;52.046;8.532;2022-08-19T15:57:14;32.80;1.00
1181;DHT22;579;52.046;8.532;2022-08-19T16:04:29;31.50;1.00
1181;DHT22;579;52.046;8.532;2022-08-19T16:07:13;30.90;1.00
1181;DHT22;579;52.046;8.532;2022-08-19T16:09:40;31.10;1.00
1181;DHT22;579;52.046;8.532;2022-08-19T16:12:06;30.90;1.00
1181;DHT22;579;52.046;8.532;2022-08-19T16:14:35;30.70;1.00
1181;DHT22;579;52.046;8.532;2022-08-19T16:17:02;30.80;1.00
1181;DHT22;579;52.046;8.532;2022-08-19T16:19:30;30.90;1.00
1181;DHT22;579;52.046;8.532;2022-08-19T16:24:36;30.90;1.00
1181;DHT22;579;52.046;8.532;2022-08-19T16:27:03;30.40;1.00
1181;DHT22;579;52.046;8.532;2022-08-19T16:29:29;30.30;1.00
1181;DHT22;579;52.046;8.532;2022-08-19T16:31:55;30.20;1.00
1181;DHT22;579;52.046;8.532;2022-08-19T16:34:22;30.20;1.00
1181;DHT22;579;52.046;8.532;2022-08-19T16:36:49;30.10;1.00
1181;DHT22;579;52.046;8.532;2022-08-19T16:39:16;30.00;1.00
1181;DHT22;579;52.046;8.532;2022-08-19T16:46:48;30.60;1.00
1181;DHT22;579;52.046;8.532;2022-08-19T16:49:15;30.80;1.00
1181;DHT22;579;52.046;8.532;2022-08-19T16:51:42;30.80;1.00
1181;DHT22;579;52.046;8.532;2022-08-19T16:54:11;30.50;1.00
1181;DHT22;579;52.046;8.532;2022-08-19T16:56:37;30.20;1.00
1181;DHT22;579;52.046;8.532;2022-08-19T16:59:04;29.90;1.00
1181;DHT22;579;52.046;8.532;2022-08-19T17:01:30;29.80;1.00
1181;DHT22;579;52.046;8.532;2022-08-19T17:08:31;29.50;1.00
1181;DHT22;579;52.046;8.532;2022-08-19T17:11:00;29.40;1.00
1181;DHT22;579;52.046;8.532;2022-08-19T17:13:28;29.40;1.00
1181;DHT22;579;52.046;8.532;2022-08-19T17:15:55;29.50;1.00
1181;DHT22;579;52.046;8.532;2022-08-19T17:18:22;29.70;1.00
1181;DHT22;579;52.046;8.532;2022-08-19T17:20:49;29.50;1.00
1181;DHT22;579;52.046;8.532;2022-08-19T17:23:16;29.50;1.00
1181;DHT22;579;52.046;8.532;2022-08-19T17:30:04;29.20;1.00
1181;DHT22;579;52.046;8.532;2022-08-19T17:32:31;29.20;1.00
1181;DHT22;579;52.046;8.532;2022-08-19T17:34:59;29.00;1.00
1181;DHT22;579;52.046;8.532;2022-08-19T17:37:25;28.80;1.00
1181;DHT22;579;52.046;8.532;2022-08-19T17:39:52;28.80;1.00
1181;DHT22;579;52.046;8.532;2022-08-19T17:42:18;28.70;1.00
1181;DHT22;579;52.046;8.532;2022-08-19T17:44:45;28.40;1.00
1181;DHT22;579;52.046;8.532;2022-08-19T17:52:00;28.60;1.00
1181;DHT22;579;52.046;8.532;2022-08-19T17:54:26;28.70;1.00
1181;DHT22;579;52.046;8.532;2022-08-19T17:56:53;28.60;1.00
1181;DHT22;579;52.046;8.532;2022-08-19T17:59:19;28.70;1.00
1181;DHT22;579;52.046;8.532;2022-08-19T18:01:46;28.70;1.00
1181;DHT22;579;52.046;8.532;2022-08-19T18:04:13;28.50;1.00
1181;DHT22;579;52.046;8.532;2022-08-19T18:06:39;28.30;1.00
1181;DHT22;579;52.046;8.532;2022-08-19T18:13:33;28.50;1.00
1181;DHT22;579;52.046;8.532;2022-08-19T18:15:59;28.40;1.00
1181;DHT22;579;52.046;8.532;2022-08-19T18:18:26;28.50;1.00
1181;DHT22;579;52.046;8.532;2022-08-19T18:20:53;28.20;1.00
1181;DHT22;579;52.046;8.532;2022-08-19T18:23:19;28.10;1.00
1181;DHT22;579;52.046;8.532;2022-08-19T18:25:46;28.20;1.00
1181;DHT22;579;52.046;8.532;2022-08-19T18:28:12;28.10;1.00
1181;DHT22;579;52.046;8.532;2022-08-19T18:34:55;28.10;1.00
1181;DHT22;579;52.046;8.532;2022-08-19T18:37:21;28.00;1.00
1181;DHT22;579;52.046;8.532;2022-08-19T18:39:50;28.00;1.00
1181;DHT22;579;52.046;8.532;2022-08-19T18:42:34;27.90;1.00
1181;DHT22;579;52.046;8.532;2022-08-19T18:45:19;27.80;1.00
1181;DHT22;579;52.046;8.532;2022-08-19T18:48:09;27.50;1.00
1181;DHT22;579;52.046;8.532;2022-08-19T18:50:57;27.50;1.00
1181;DHT22;579;52.046;8.532;2022-08-19T18:58:02;27.60;1.00
1181;DHT22;579;52.046;8.532;2022-08-19T19:00:29;27.70;1.00
1181;DHT22;579;52.046;8.532;2022-08-19T19:02:56;27.60;1.00
1181;DHT22;579;52.046;8.532;2022-08-19T19:05:23;27.50;1.00
1181;DHT22;579;52.046;8.532;2022-08-19T19:07:50;27.40;1.00
1181;DHT22;579;52.046;8.532;2022-08-19T19:10:17;27.30;1.00
1181;DHT22;579;52.046;8.532;2022-08-19T19:12:44;27.30;1.00
1181;DHT22;579;52.046;8.532;2022-08-19T19:18:00;27.30;1.00
1181;DHT22;579;52.046;8.532;2022-08-19T19:20:27;27.00;1.00
1181;DHT22;579;52.046;8.532;2022-08-19T19:22:55;26.90;1.00
1181;DHT22;579;52.046;8.532;2022-08-19T19:25:22;26.90;1.00
1181;DHT22;579;52.046;8.532;2022-08-19T19:27:48;26.90;1.00
1181;DHT22;579;52.046;8.532;2022-08-19T19:30:14;26.80;1.00
1181;DHT22;579;52.046;8.532;2022-08-19T19:32:40;26.60;1.00
1181;DHT22;579;52.046;8.532;2022-08-19T19:35:07;26.60;1.00
1181;DHT22;579;52.046;8.532;2022-08-19T19:42:39;26.50;1.00
1181;DHT22;579;52.046;8.532;2022-08-19T19:45:06;26.60;1.00
1181;DHT22;579;52.046;8.532;2022-08-19T19:47:33;26.50;1.00
1181;DHT22;579;52.046;8.532;2022-08-19T19:49:59;26.50;1.00
1181;DHT22;579;52.046;8.532;2022-08-19T19:52:26;26.30;1.00
1181;DHT22;579;52.046;8.532;2022-08-19T19:54:52;26.40;1.00
1181;DHT22;579;52.046;8.532;2022-08-19T19:57:21;26.30;1.00
1181;DHT22;579;52.046;8.532;2022-08-19T20:07:03;26.10;1.00
1181;DHT22;579;52.046;8.532;2022-08-19T20:09:29;26.20;1.00
1181;DHT22;579;52.046;8.532;2022-08-19T20:11:56;26.20;1.00
1181;DHT22;579;52.046;8.532;2022-08-19T20:14:25;26.20;1.00
1181;DHT22;579;52.046;8.532;2022-08-19T20:16:56;26.30;1.00
1181;DHT22;579;52.046;8.532;2022-08-19T20:19:24;26.20;1.00
1181;DHT22;579;52.046;8.532;2022-08-19T20:21:51;26.20;1.00
1181;DHT22;579;52.046;8.532;2022-08-19T20:27:03;26.20;1.00
1181;DHT22;579;52.046;8.532;2022-08-19T20:29:30;26.10;1.00
1181;DHT22;579;52.046;8.532;2022-08-19T20:31:56;26.00;1.00
1181;DHT22;579;52.046;8.532;2022-08-19T20:34:22;25.90;1.00